createdAt,value
2022-11-16T00:01:27.278Z,23.12
2022-11-16T00:04:00.667Z,23.10
2022-11-16T00:06:31.377Z,23.05
2022-11-16T00:09:22.160Z,22.84
2022-11-16T00:11:56.948Z,22.69
2022-11-16T00:14:29.787Z,22.51
2022-11-16T00:17:00.655Z,22.41
2022-11-16T00:19:31.104Z,22.34
2022-11-16T00:22:01.562Z,22.24
2022-11-16T00:24:31.806Z,22.20
2022-11-16T00:27:02.143Z,22.07
2022-11-16T00:29:32.826Z,22.10
2022-11-16T00:32:03.109Z,22.11
2022-11-16T00:34:33.368Z,22.06
2022-11-16T00:37:03.943Z,21.90
2022-11-16T00:39:34.304Z,21.87
2022-11-16T00:42:04.470Z,21.89
2022-11-16T00:44:34.871Z,21.94
2022-11-16T00:47:05.314Z,21.86
2022-11-16T00:49:34.963Z,21.89
2022-11-16T00:52:05.459Z,21.82
2022-11-16T00:54:35.706Z,21.80
2022-11-16T00:57:06.228Z,21.75
2022-11-16T00:59:36.318Z,21.69
2022-11-16T01:02:06.591Z,21.70
2022-11-16T01:04:36.766Z,21.63
2022-11-16T01:07:08.150Z,21.57
2022-11-16T01:09:38.509Z,21.49
2022-11-16T01:12:11.785Z,21.49
2022-11-16T01:14:44.349Z,21.31
2022-11-16T01:17:16.323Z,21.34
2022-11-16T01:19:46.662Z,21.36
2022-11-16T01:22:16.963Z,21.42
2022-11-16T01:24:50.127Z,21.38
2022-11-16T01:27:20.409Z,21.36
2022-11-16T01:29:50.772Z,21.35
2022-11-16T01:32:21.127Z,21.42
2022-11-16T01:34:52.190Z,21.49
2022-11-16T01:37:34.400Z,21.50
2022-11-16T01:40:05.900Z,21.38
2022-11-16T01:42:37.044Z,21.29
2022-11-16T01:45:25.643Z,21.32
2022-11-16T01:47:59.109Z,21.24
2022-11-16T01:50:33.422Z,21.21
2022-11-16T01:53:07.411Z,21.15
2022-11-16T01:55:54.587Z,21.12
2022-11-16T01:58:48.220Z,21.08
2022-11-16T02:01:26.230Z,20.95
2022-11-16T02:04:01.388Z,20.85
2022-11-16T02:07:18.519Z,20.88
2022-11-16T02:10:07.095Z,20.78
2022-11-16T02:13:03.540Z,20.73
2022-11-16T02:16:05.529Z,20.73
2022-11-16T02:19:01.529Z,20.73
2022-11-16T02:21:46.878Z,20.58
2022-11-16T02:24:34.096Z,20.60
2022-11-16T02:27:13.525Z,20.65
2022-11-16T02:29:52.052Z,20.64
2022-11-16T02:32:26.566Z,20.61
2022-11-16T02:35:00.318Z,20.60
2022-11-16T02:37:39.894Z,20.58
2022-11-16T02:40:13.796Z,20.48
2022-11-16T02:42:55.411Z,20.36
2022-11-16T02:45:30.329Z,20.39
2022-11-16T02:48:06.569Z,20.36
2022-11-16T02:50:38.567Z,20.36
2022-11-16T02:53:08.995Z,20.33
2022-11-16T02:55:39.531Z,20.32
2022-11-16T02:58:12.906Z,20.22
2022-11-16T03:00:58.282Z,20.10
2022-11-16T03:03:52.477Z,20.15
2022-11-16T03:06:31.947Z,20.23
2022-11-16T03:09:13.758Z,20.22
2022-11-16T03:12:01.316Z,20.23
2022-11-16T03:14:51.073Z,20.27
2022-11-16T03:17:49.234Z,20.16
2022-11-16T03:20:31.471Z,19.99
2022-11-16T03:23:05.583Z,19.99
2022-11-16T03:25:53.207Z,20.02
2022-11-16T03:28:32.892Z,19.93
2022-11-16T03:31:20.518Z,19.82
2022-11-16T03:33:54.563Z,19.86
2022-11-16T03:36:36.905Z,19.81
2022-11-16T03:39:13.511Z,19.87
2022-11-16T03:41:46.001Z,19.95
2022-11-16T03:44:19.108Z,19.97
2022-11-16T03:46:50.137Z,19.99
2022-11-16T03:49:23.923Z,19.97
2022-11-16T03:51:56.017Z,19.78
2022-11-16T03:54:25.929Z,19.82
2022-11-16T03:56:56.103Z,19.72
2022-11-16T03:59:25.770Z,19.78
2022-11-16T04:01:56.377Z,19.71
2022-11-16T04:04:45.011Z,19.72
2022-11-16T04:07:33.386Z,19.69
2022-11-16T04:10:22.115Z,19.74
2022-11-16T04:13:10.885Z,19.62
2022-11-16T04:15:58.954Z,19.61
2022-11-16T04:18:48.221Z,19.50
2022-11-16T04:22:00.200Z,19.50
2022-11-16T04:24:38.674Z,19.62
2022-11-16T04:27:51.230Z,19.58
2022-11-16T04:30:21.655Z,19.62
2022-11-16T04:33:10.506Z,19.50
2022-11-16T04:35:58.621Z,19.36
2022-11-16T04:38:28.946Z,19.41
2022-11-16T04:40:58.707Z,19.35
2022-11-16T04:43:28.646Z,19.44
2022-11-16T04:46:17.304Z,19.36
2022-11-16T04:48:47.539Z,19.07
2022-11-16T04:51:17.351Z,18.96
2022-11-16T04:53:47.480Z,19.07
2022-11-16T04:56:22.411Z,19.32
2022-11-16T04:58:52.670Z,19.38
2022-11-16T05:01:45.714Z,19.21
2022-11-16T05:04:16.106Z,19.28
2022-11-16T05:06:46.518Z,19.18
2022-11-16T05:09:17.499Z,19.27
2022-11-16T05:11:48.483Z,19.15
2022-11-16T05:14:18.538Z,19.14
2022-11-16T05:16:49.404Z,19.15
2022-11-16T05:19:38.608Z,19.23
2022-11-16T05:22:09.470Z,19.30
2022-11-16T05:24:40.194Z,19.23
2022-11-16T05:27:12.985Z,19.23
2022-11-16T05:29:44.202Z,19.27
2022-11-16T05:32:19.125Z,19.34
2022-11-16T05:34:50.238Z,19.32
2022-11-16T05:37:22.460Z,19.30
2022-11-16T05:39:52.820Z,19.25
2022-11-16T05:42:25.498Z,19.20
2022-11-16T05:44:56.163Z,19.14
2022-11-16T05:47:26.530Z,19.13
2022-11-16T05:49:57.135Z,19.06
2022-11-16T05:52:29.485Z,19.00
2022-11-16T05:55:04.552Z,19.00
2022-11-16T05:57:39.005Z,19.01
2022-11-16T06:00:09.153Z,18.97
2022-11-16T06:02:44.968Z,18.94
2022-11-16T06:05:23.108Z,18.89
2022-11-16T06:07:53.652Z,18.80
2022-11-16T06:10:42.711Z,18.89
2022-11-16T06:13:31.378Z,18.87
2022-11-16T06:16:05.032Z,18.87
2022-11-16T06:18:42.045Z,18.89
2022-11-16T06:21:14.170Z,18.72
2022-11-16T06:23:44.728Z,18.59
2022-11-16T06:26:15.222Z,18.67
2022-11-16T06:28:46.170Z,18.67
2022-11-16T06:31:16.861Z,18.70
2022-11-16T06:33:48.090Z,18.69
2022-11-16T06:36:23.707Z,18.66
2022-11-16T06:38:54.101Z,18.51
2022-11-16T06:41:25.407Z,18.49
2022-11-16T06:43:56.166Z,18.48
2022-11-16T06:46:33.500Z,18.51
2022-11-16T06:49:04.009Z,18.46
2022-11-16T06:51:35.863Z,18.32
2022-11-16T06:54:07.607Z,18.31
2022-11-16T06:56:39.069Z,18.32
2022-11-16T06:59:10.384Z,18.15
2022-11-16T07:01:41.086Z,18.12
2022-11-16T07:04:17.304Z,18.16
2022-11-16T07:06:54.570Z,18.19
2022-11-16T07:09:24.789Z,18.09
2022-11-16T07:11:55.535Z,17.97
2022-11-16T07:14:26.440Z,18.05
2022-11-16T07:17:00.393Z,17.85
2022-11-16T07:19:32.280Z,17.85
2022-11-16T07:22:02.934Z,17.87
2022-11-16T07:24:33.990Z,17.94
2022-11-16T07:27:04.619Z,17.88
2022-11-16T07:29:38.640Z,17.87
2022-11-16T07:32:34.652Z,17.75
2022-11-16T07:35:16.605Z,17.64
2022-11-16T07:37:46.924Z,17.67
2022-11-16T07:40:18.570Z,17.53
2022-11-16T07:42:49.530Z,17.36
2022-11-16T07:45:35.772Z,17.47
2022-11-16T07:48:10.879Z,17.59
2022-11-16T07:51:18.854Z,17.51
2022-11-16T07:54:09.570Z,17.29
2022-11-16T07:56:39.966Z,17.39
2022-11-16T07:59:10.740Z,17.27
2022-11-16T08:01:48.205Z,17.15
2022-11-16T08:04:19.814Z,17.09
2022-11-16T08:06:52.955Z,17.05
2022-11-16T08:09:24.319Z,17.20
2022-11-16T08:11:56.199Z,17.31
2022-11-16T08:14:26.918Z,17.36
2022-11-16T08:16:59.112Z,17.39
2022-11-16T08:19:28.844Z,17.39
2022-11-16T08:21:59.316Z,17.34
2022-11-16T08:24:35.248Z,17.36
2022-11-16T08:27:05.910Z,17.18
2022-11-16T08:29:36.150Z,17.15
2022-11-16T08:32:09.296Z,17.23
2022-11-16T08:34:39.992Z,17.12
2022-11-16T08:37:09.753Z,17.15
2022-11-16T08:39:43.036Z,17.20
2022-11-16T08:42:13.325Z,17.26
2022-11-16T08:44:47.572Z,17.37
2022-11-16T08:47:20.783Z,17.43
2022-11-16T08:49:54.838Z,17.41
2022-11-16T08:52:27.363Z,17.49
2022-11-16T08:54:58.812Z,17.50
2022-11-16T08:57:29.298Z,17.54
2022-11-16T09:00:02.347Z,17.57
2022-11-16T09:02:32.888Z,17.57
2022-11-16T09:05:03.094Z,17.64
2022-11-16T09:07:33.779Z,17.71
2022-11-16T09:10:04.043Z,17.75
2022-11-16T09:12:38.202Z,17.82
2022-11-16T09:15:08.973Z,17.87
2022-11-16T09:17:39.275Z,17.97
2022-11-16T09:20:09.347Z,18.04
2022-11-16T09:22:39.534Z,18.06
2022-11-16T09:25:10.674Z,18.18
2022-11-16T09:27:41.307Z,18.24
2022-11-16T09:30:13.051Z,18.32
2022-11-16T09:32:43.503Z,18.36
2022-11-16T09:35:13.175Z,18.35
2022-11-16T09:37:43.340Z,18.24
2022-11-16T09:40:13.953Z,18.42
2022-11-16T09:43:18.428Z,18.60
2022-11-16T09:46:02.477Z,18.72
2022-11-16T09:48:35.721Z,18.84
2022-11-16T09:51:09.576Z,18.90
2022-11-16T09:53:43.700Z,19.04
2022-11-16T09:56:28.399Z,19.14
2022-11-16T09:59:16.710Z,19.13
2022-11-16T10:01:54.747Z,19.11
2022-11-16T10:04:58.152Z,19.13
2022-11-16T10:07:38.971Z,19.23
2022-11-16T10:10:18.517Z,19.35
2022-11-16T10:13:04.164Z,19.24
2022-11-16T10:15:49.871Z,19.41
2022-11-16T10:18:35.290Z,19.50
2022-11-16T10:21:34.432Z,19.66
2022-11-16T10:24:32.900Z,19.82
2022-11-16T10:27:47.932Z,19.93
2022-11-16T10:30:23.258Z,20.09
2022-11-16T10:33:09.650Z,20.23
2022-11-16T10:35:57.308Z,20.33
2022-11-16T10:38:34.471Z,20.44
2022-11-16T10:41:37.045Z,20.60
2022-11-16T10:44:19.434Z,20.65
2022-11-16T10:47:13.447Z,20.80
2022-11-16T10:49:58.580Z,20.90
2022-11-16T10:52:29.344Z,20.91
2022-11-16T10:54:59.577Z,21.01
2022-11-16T10:57:49.017Z,21.14
2022-11-16T11:00:47.770Z,21.22
2022-11-16T11:03:32.877Z,21.34
2022-11-16T11:06:03.718Z,21.42
2022-11-16T11:08:33.998Z,21.45
2022-11-16T11:11:24.641Z,21.57
2022-11-16T11:14:12.839Z,21.72
2022-11-16T11:16:43.583Z,21.87
2022-11-16T11:19:33.807Z,22.01
2022-11-16T11:22:04.169Z,22.08
2022-11-16T11:24:49.817Z,22.20
2022-11-16T11:27:26.099Z,22.33
2022-11-16T11:29:59.948Z,22.34
2022-11-16T11:32:42.179Z,22.45
2022-11-16T11:35:28.683Z,22.54
2022-11-16T11:38:07.650Z,22.68
2022-11-16T11:40:38.737Z,22.82
2022-11-16T11:43:25.404Z,22.86
2022-11-16T11:46:47.326Z,22.99
2022-11-16T11:49:33.431Z,23.05
2022-11-16T11:52:13.369Z,23.09
2022-11-16T11:54:49.703Z,23.19
2022-11-16T11:57:23.394Z,23.27
2022-11-16T11:59:56.395Z,23.27
2022-11-16T12:02:35.620Z,23.42
2022-11-16T12:05:21.265Z,23.63
2022-11-16T12:08:13.755Z,23.74
2022-11-16T12:10:48.667Z,23.73
2022-11-16T12:13:41.502Z,23.81
2022-11-16T12:17:07.937Z,24.04
2022-11-16T12:19:57.643Z,24.17
2022-11-16T12:22:52.052Z,24.24
2022-11-16T12:25:51.908Z,24.18
2022-11-16T12:28:40.796Z,24.28
2022-11-16T12:31:32.204Z,24.47
2022-11-16T12:34:39.359Z,24.49
2022-11-16T12:37:22.071Z,24.75
2022-11-16T12:40:18.223Z,24.79
2022-11-16T12:43:02.317Z,24.99
2022-11-16T12:45:47.799Z,25.20
2022-11-16T12:48:33.026Z,25.26
2022-11-16T12:51:32.095Z,25.33
2022-11-16T12:54:08.423Z,25.31
2022-11-16T12:56:48.661Z,25.60
2022-11-16T12:59:52.897Z,25.71
2022-11-16T13:02:48.216Z,25.98
2022-11-16T13:05:24.342Z,25.98
2022-11-16T13:08:07.179Z,25.82
2022-11-16T13:10:44.228Z,25.78
2022-11-16T13:13:40.108Z,25.86
2022-11-16T13:16:12.156Z,25.84
2022-11-16T13:18:44.192Z,25.89
2022-11-16T13:21:36.139Z,26.08
2022-11-16T13:24:23.637Z,26.12
2022-11-16T13:27:31.969Z,26.23
2022-11-16T13:30:06.413Z,26.49
2022-11-16T13:32:51.191Z,26.77
2022-11-16T13:35:22.465Z,26.74
2022-11-16T13:37:53.586Z,26.95
2022-11-16T13:40:29.945Z,26.95
2022-11-16T13:43:20.925Z,27.22
2022-11-16T13:45:51.206Z,27.28
2022-11-16T13:48:27.228Z,27.12
2022-11-16T13:51:05.831Z,27.28
2022-11-16T13:57:07.342Z,27.10
2022-11-16T13:59:38.590Z,27.30
2022-11-16T14:02:28.874Z,27.65
2022-11-16T14:05:03.354Z,27.63
2022-11-16T14:07:51.218Z,27.59
2022-11-16T14:10:46.950Z,27.82
2022-11-16T14:13:34.766Z,27.72
2022-11-16T14:16:23.918Z,27.63
2022-11-16T14:19:02.423Z,27.73
2022-11-16T14:22:08.082Z,28.23
2022-11-16T14:25:12.971Z,28.31
2022-11-16T14:28:25.802Z,28.60
2022-11-16T14:30:59.129Z,28.45
2022-11-16T14:33:39.097Z,28.13
2022-11-16T14:36:12.431Z,28.12
2022-11-16T14:38:44.763Z,28.65
2022-11-16T14:41:24.676Z,28.61
2022-11-16T14:43:59.711Z,28.94
2022-11-16T14:46:37.853Z,28.71
2022-11-16T14:49:15.912Z,28.74
2022-11-16T14:51:50.528Z,28.84
2022-11-16T14:54:34.242Z,28.94
2022-11-16T14:57:07.647Z,28.99
2022-11-16T14:59:37.874Z,29.02
2022-11-16T15:02:22.979Z,29.15
2022-11-16T15:04:54.864Z,28.96
2022-11-16T15:07:26.266Z,29.18
2022-11-16T15:10:00.566Z,29.12
2022-11-16T15:12:43.388Z,29.60
2022-11-16T15:15:13.591Z,29.30
2022-11-16T15:17:54.617Z,29.27
2022-11-16T15:20:26.606Z,29.32
2022-11-16T15:23:00.223Z,29.53
2022-11-16T15:25:33.272Z,29.57
2022-11-16T15:28:15.642Z,29.50
2022-11-16T15:30:50.630Z,29.53
2022-11-16T15:33:31.972Z,29.85
2022-11-16T15:36:02.526Z,30.14
2022-11-16T15:38:34.842Z,30.28
2022-11-16T15:41:06.632Z,30.44
2022-11-16T15:44:01.375Z,30.64
2022-11-16T15:46:36.974Z,30.46
2022-11-16T15:49:34.563Z,30.39
2022-11-16T15:52:05.180Z,30.10
2022-11-16T15:54:57.300Z,30.03
2022-11-16T15:57:27.723Z,30.00
2022-11-16T15:59:59.543Z,30.27
2022-11-16T16:02:32.428Z,30.32
2022-11-16T16:05:02.818Z,30.24
2022-11-16T16:07:45.268Z,30.36
2022-11-16T16:10:21.324Z,30.14
2022-11-16T16:12:55.334Z,29.87
2022-11-16T16:15:37.880Z,29.96
2022-11-16T16:18:38.128Z,30.18
2022-11-16T16:21:08.511Z,30.46
2022-11-16T16:23:58.254Z,30.38
2022-11-16T16:26:28.690Z,30.32
2022-11-16T16:28:59.032Z,30.35
2022-11-16T16:31:29.340Z,30.18
2022-11-16T16:34:00.790Z,30.14
2022-11-16T16:36:31.234Z,30.32
2022-11-16T16:39:01.331Z,30.52
2022-11-16T16:41:31.963Z,30.39
2022-11-16T16:44:02.302Z,30.35
2022-11-16T16:46:32.492Z,30.21
2022-11-16T16:49:02.839Z,30.17
2022-11-16T16:51:33.234Z,30.35
2022-11-16T16:54:03.349Z,30.51
2022-11-16T16:56:33.721Z,30.29
2022-11-16T16:59:04.016Z,30.35
2022-11-16T17:01:34.351Z,30.66
2022-11-16T17:04:04.754Z,31.02
2022-11-16T17:06:35.219Z,31.04
2022-11-16T17:09:05.992Z,31.10
2022-11-16T17:11:36.442Z,31.23
2022-11-16T17:14:07.168Z,31.16
2022-11-16T17:16:38.024Z,30.92
2022-11-16T17:19:08.334Z,30.59
2022-11-16T17:21:38.827Z,30.62
2022-11-16T17:24:09.231Z,30.68
2022-11-16T17:26:39.650Z,31.02
2022-11-16T17:29:09.919Z,30.72
2022-11-16T17:31:44.682Z,30.61
2022-11-16T17:34:15.025Z,30.17
2022-11-16T17:36:46.232Z,30.35
2022-11-16T17:39:17.217Z,30.48
2022-11-16T17:41:47.998Z,30.61
2022-11-16T17:44:21.797Z,30.49
2022-11-16T17:46:52.652Z,30.51
2022-11-16T17:49:23.102Z,30.66
2022-11-16T17:51:53.448Z,31.06
2022-11-16T17:54:23.738Z,31.00
2022-11-16T17:56:54.136Z,30.96
2022-11-16T17:59:29.227Z,30.83
2022-11-16T18:02:00.322Z,30.79
2022-11-16T18:04:30.715Z,30.58
2022-11-16T18:07:02.338Z,30.45
2022-11-16T18:09:32.738Z,30.59
2022-11-16T18:12:03.106Z,30.72
2022-11-16T18:14:33.492Z,30.82
2022-11-16T18:17:03.832Z,30.89
2022-11-16T18:19:34.161Z,30.72
2022-11-16T18:22:04.345Z,30.89
2022-11-16T18:24:34.778Z,30.92
2022-11-16T18:27:05.106Z,30.66
2022-11-16T18:29:36.581Z,30.78
2022-11-16T18:32:07.085Z,30.64
2022-11-16T18:34:37.354Z,30.71
2022-11-16T18:37:07.831Z,30.86
2022-11-16T18:39:38.179Z,30.85
2022-11-16T18:42:09.370Z,30.92
2022-11-16T18:44:39.668Z,31.02
2022-11-16T18:47:10.002Z,30.83
2022-11-16T18:49:40.361Z,30.76
2022-11-16T18:52:10.678Z,31.04
2022-11-16T18:54:40.977Z,31.24
2022-11-16T18:57:11.680Z,31.19
2022-11-16T18:59:42.014Z,31.68
2022-11-16T19:02:15.483Z,31.43
2022-11-16T19:04:45.816Z,31.37
2022-11-16T19:07:16.247Z,30.97
2022-11-16T19:09:46.586Z,31.03
2022-11-16T19:12:16.924Z,30.90
2022-11-16T19:14:47.256Z,30.93
2022-11-16T19:17:17.527Z,30.92
2022-11-16T19:19:47.913Z,30.75
2022-11-16T19:22:18.430Z,30.85
2022-11-16T19:24:48.593Z,30.83
2022-11-16T19:27:18.918Z,30.74
2022-11-16T19:29:49.240Z,30.62
2022-11-16T19:32:19.451Z,30.64
2022-11-16T19:34:49.729Z,30.58
2022-11-16T19:37:20.228Z,30.38
2022-11-16T19:39:50.640Z,30.44
2022-11-16T19:42:21.248Z,30.45
2022-11-16T19:44:51.509Z,30.51
2022-11-16T19:47:24.355Z,30.46
2022-11-16T19:49:55.206Z,30.34
2022-11-16T19:52:25.530Z,30.24
2022-11-16T19:54:56.846Z,30.24
2022-11-16T19:57:27.257Z,30.13
2022-11-16T19:59:57.730Z,30.13
2022-11-16T20:02:28.086Z,30.05
2022-11-16T20:04:58.349Z,30.01
2022-11-16T20:07:28.620Z,29.94
2022-11-16T20:09:59.704Z,30.00
2022-11-16T20:12:30.393Z,29.94
2022-11-16T20:15:02.640Z,29.98
2022-11-16T20:17:33.020Z,29.91
2022-11-16T20:20:03.332Z,29.80
2022-11-16T20:22:33.603Z,29.76
2022-11-16T20:25:03.880Z,29.76
2022-11-16T20:27:33.965Z,29.69
2022-11-16T20:30:09.251Z,29.87
2022-11-16T20:32:40.382Z,29.60
2022-11-16T20:35:13.720Z,29.47
2022-11-16T20:37:46.744Z,29.69
2022-11-16T20:40:17.049Z,29.49
2022-11-16T20:42:49.246Z,29.32
2022-11-16T20:45:19.545Z,29.22
2022-11-16T20:47:49.857Z,29.15
2022-11-16T20:50:23.199Z,29.08
2022-11-16T20:52:53.550Z,29.02
2022-11-16T20:55:23.855Z,28.95
2022-11-16T20:57:54.192Z,28.82
2022-11-16T21:00:24.504Z,28.78
2022-11-16T21:02:55.255Z,28.68
2022-11-16T21:05:25.542Z,28.60
2022-11-16T21:07:55.682Z,28.48
2022-11-16T21:10:26.015Z,28.43
2022-11-16T21:13:14.588Z,28.27
2022-11-16T21:15:44.383Z,28.23
2022-11-16T21:18:14.396Z,28.10
2022-11-16T21:20:44.716Z,28.00
2022-11-16T21:23:15.036Z,27.86
2022-11-16T21:25:45.282Z,27.76
2022-11-16T21:28:15.562Z,27.66
2022-11-16T21:30:56.992Z,27.58
2022-11-16T21:33:27.894Z,27.46
2022-11-16T21:35:58.244Z,27.31
2022-11-16T21:38:28.547Z,27.18
2022-11-16T21:40:58.839Z,27.31
2022-11-16T21:43:30.255Z,27.70
2022-11-16T21:46:05.553Z,27.14
2022-11-16T21:48:37.102Z,26.76
2022-11-16T21:51:12.763Z,26.57
2022-11-16T21:53:43.317Z,26.42
2022-11-16T21:56:19.271Z,26.20
2022-11-16T21:58:51.187Z,26.02
2022-11-16T22:01:22.501Z,25.89
2022-11-16T22:04:11.908Z,25.72
2022-11-16T22:07:14.291Z,25.61
2022-11-16T22:09:44.617Z,25.45
2022-11-16T22:12:14.935Z,25.34
2022-11-16T22:14:45.310Z,25.19
2022-11-16T22:17:15.660Z,25.10
2022-11-16T22:19:45.957Z,25.06
2022-11-16T22:22:16.286Z,24.99
2022-11-16T22:24:46.769Z,24.91
2022-11-16T22:27:18.254Z,24.89
2022-11-16T22:29:48.601Z,24.83
2022-11-16T22:32:18.941Z,24.76
2022-11-16T22:34:49.538Z,24.69
2022-11-16T22:37:20.358Z,24.62
2022-11-16T22:39:50.905Z,24.53
2022-11-16T22:42:21.204Z,24.48
2022-11-16T22:44:52.004Z,24.35
2022-11-16T22:47:22.335Z,24.19
2022-11-16T22:49:53.470Z,24.08
2022-11-16T22:52:23.776Z,24.09
2022-11-16T22:54:54.225Z,24.02
2022-11-16T22:57:24.616Z,24.00
2022-11-16T22:59:54.984Z,23.88
2022-11-16T23:02:25.291Z,23.74
2022-11-16T23:04:55.477Z,23.67
2022-11-16T23:07:27.835Z,23.68
2022-11-16T23:09:58.423Z,23.67
2022-11-16T23:12:47.210Z,23.64
2022-11-16T23:15:35.643Z,23.57
2022-11-16T23:18:06.907Z,23.53
2022-11-16T23:20:57.753Z,23.40
2022-11-16T23:23:47.207Z,23.26
2022-11-16T23:26:43.070Z,23.22
2022-11-16T23:29:13.906Z,23.27
2022-11-16T23:31:44.469Z,23.31
2022-11-16T23:34:14.781Z,23.30
2022-11-16T23:36:45.334Z,23.26
2022-11-16T23:39:16.995Z,23.22
2022-11-16T23:42:06.097Z,23.23
2022-11-16T23:44:36.363Z,23.13
2022-11-16T23:47:07.082Z,22.96
2022-11-16T23:49:37.398Z,22.89
2022-11-16T23:52:07.836Z,22.84
2022-11-16T23:54:38.165Z,22.79
2022-11-16T23:57:08.897Z,22.65
2022-11-16T23:59:40.712Z,22.52
